• Join FlightAware (Why Join?)
  • Login
  • US Flag 
06:04AM EDT


 

Airport Tracker/Info


-or-


 

Live Flight TrackerFlight Track Log ✈ N111UC ✈ 03-Jul-2013 ✈ KTVC - KMGY

Flight Track Log - Related Links

Times and Time Zones

All times are in EDT time to prevent confusion due to time zone crossing. See the N111UC flight status page for this flight to view local times or setup timezone preferences in your user account.

Time Position Orientation Groundspeed Altitude Reporting Facility
EDT Latitude Longitude Course Direction KTS MPH feet Rate Location/Type
09:14PM 44.6911 -85.5339 122° Southeast 131 151 2,200  Level Minneapolis Center
09:15PM 44.6972 -85.4789 81° East 140 161 3,000 660 Climbing Minneapolis Center
09:16PM 44.7028 -85.4214 82° East 139 160 3,600 720 Climbing Minneapolis Center
09:17PM 44.6617 -85.4089 168° South 142 163 4,600 540 Climbing Minneapolis Center
09:18PM 44.6153 -85.4031 175° South 137 158 4,800 120 Climbing Minneapolis Center
09:19PM 44.5636 -85.3875 168° South 148 170 4,900  Climbing Minneapolis Center
09:20PM 44.5214 -85.3764 169° South 152 175 4,900  Level Minneapolis Center
09:21PM 44.4794 -85.3642 168° South 153 176 4,900  Level Minneapolis Center
09:22PM 44.4358 -85.3531 170° South 156 180 4,900  Level Minneapolis Center
09:23PM 44.3933 -85.3481 175° South 155 178 4,900  Level Minneapolis Center
09:24PM 44.3422 -85.3636 192° South 155 178 4,900  Level Minneapolis Center
09:25PM 44.2986 -85.3742 190° South 157 181 4,900  Level Minneapolis Center
09:26PM 44.2572 -85.3950 200° South 157 181 4,900  Level Minneapolis Center
09:27PM 44.2161 -85.4142 198° South 156 180 4,900  Level Minneapolis Center
09:28PM 44.1803 -85.4469 213° Southwest 154 177 4,900  Level Minneapolis Center
09:29PM 44.1447 -85.4833 216° Southwest 156 180 4,900  Level Minneapolis Center
09:30PM 44.1011 -85.5217 212° Southwest 156 180 4,900  Level Minneapolis Center
09:31PM 44.0642 -85.5300 189° South 153 176 4,900  Level Minneapolis Center
09:32PM 44.0236 -85.5150 165° South 148 170 4,900  Level Minneapolis Center
09:33PM 43.9833 -85.4989 164° South 150 173 4,900  Level Minneapolis Center
09:34PM 43.9344 -85.4872 170° South 149 171 4,900  Level Minneapolis Center
09:35PM 43.8936 -85.4728 166° South 151 174 4,900  Level Minneapolis Center
09:36PM 43.8517 -85.4597 167° South 153 176 4,900  Level Minneapolis Center
09:37PM 43.8117 -85.4486 169° South 149 171 4,900  Level Minneapolis Center
09:39PM 43.7708 -85.4350 166° South 149 171 4,900  Level Minneapolis Center
09:40PM 43.7292 -85.4225 168° South 152 175 4,900  Level Minneapolis Center
09:41PM 43.6803 -85.4081 168° South 152 175 4,900  Level Minneapolis Center
09:42PM 43.6394 -85.3967 169° South 150 173 4,900  Level Minneapolis Center
09:43PM 43.6075 -85.3858 166° South 150 173 4,900 -60 Level Chicago Center
09:44PM 43.5667 -85.3714 166° South 150 173 4,800  Descending Chicago Center
09:45PM 43.5256 -85.3583 167° South 151 174 4,900  Climbing Chicago Center
09:46PM 43.4764 -85.3447 169° South 151 174 4,900  Level Chicago Center
09:47PM 43.4364 -85.3311 166° South 150 173 4,900  Level Chicago Center
09:48PM 43.3953 -85.3183 167° South 150 173 4,900  Level Chicago Center
09:49PM 43.3550 -85.3058 167° South 149 171 4,900  Level Chicago Center
09:50PM 43.3147 -85.2939 168° South 149 171 4,900  Level Chicago Center
09:51PM 43.2739 -85.2819 168° South 149 171 4,900  Level Chicago Center
09:52PM 43.2336 -85.2692 167° South 149 171 4,900  Level Chicago Center
09:53PM 43.1856 -85.2539 167° South 148 170 4,900  Level Chicago Center
09:54PM 43.1450 -85.2419 168° South 149 171 4,900  Level Chicago Center
09:55PM 43.1047 -85.2303 168° South 148 170 4,900  Level Chicago Center
09:56PM 43.0644 -85.2183 168° South 148 170 4,900  Level Chicago Center
09:57PM 43.0233 -85.2053 167° South 150 173 4,900  Level Chicago Center
09:58PM 42.9822 -85.1925 167° South 151 174 4,900  Level Chicago Center
09:59PM 42.9325 -85.1794 169° South 151 174 4,900  Level Chicago Center
10:00PM 42.8911 -85.1669 168° South 152 175 4,900  Level Chicago Center
10:01PM 42.8500 -85.1533 166° South 153 176 4,900  Level Chicago Center
10:02PM 42.8089 -85.1403 167° South 152 175 4,900  Level Chicago Center
10:03PM 42.7678 -85.1289 169° South 151 174 4,900  Level Chicago Center
10:04PM 42.7261 -85.1164 168° South 152 175 4,900  Level Chicago Center
10:05PM 42.6858 -85.1056 169° South 149 171 4,900  Level Chicago Center
10:06PM 42.6447 -85.0931 167° South 150 173 4,900  Level Chicago Center
10:07PM 42.5961 -85.0753 165° South 151 174 4,900  Level Chicago Center
10:08PM 42.5553 -85.0661 171° South 149 171 4,900  Level Chicago Center
10:09PM 42.5156 -85.0533 167° South 147 169 4,900  Level Chicago Center
10:10PM 42.4756 -85.0394 166° South 148 170 4,900  Level Chicago Center
10:11PM 42.4353 -85.0294 170° South 148 170 4,900  Level Chicago Center
10:12PM 42.3958 -85.0167 167° South 146 168 4,900  Level Chicago Center
10:13PM 42.3556 -85.0056 168° South 147 169 4,900  Level Chicago Center
10:14PM 42.3167 -84.9939 167° South 145 167 4,900  Level Chicago Center
10:15PM 42.2758 -84.9828 169° South 148 170 4,900  Level Chicago Center
10:16PM 42.2303 -84.9686 167° South 148 170 4,900  Level Chicago Center
10:17PM 42.1908 -84.9561 167° South 146 168 4,900 -60 Level Chicago Center
10:18PM 42.1503 -84.9458 169° South 148 170 4,800  Descending Chicago Center
10:20PM 42.1097 -84.9342 168° South 148 170 4,900  Climbing Chicago Center
10:21PM 42.0697 -84.9225 168° South 147 169 4,900  Level Chicago Center
10:22PM 42.0292 -84.9097 167° South 148 170 4,900  Level Chicago Center
10:23PM 41.9892 -84.8975 167° South 148 170 4,900  Level Chicago Center
10:24PM 41.9489 -84.8858 168° South 147 169 4,900  Level Chicago Center
10:25PM 41.9094 -84.8761 170° South 146 168 4,900  Level Chicago Center
10:26PM 41.8611 -84.8619 168° South 146 168 4,900  Level Chicago Center
10:27PM 41.8211 -84.8483 166° South 147 169 4,900  Level Chicago Center
10:28PM 41.7806 -84.8367 168° South 148 170 4,900  Level Chicago Center
10:29PM 41.7406 -84.8256 168° South 147 169 5,000  Climbing Chicago Center
10:30PM 41.7017 -84.8150 169° South 146 168 4,900 -60 Descending Chicago Center
10:31PM 41.6531 -84.7997 167° South 147 169 4,900  Level Chicago Center
10:32PM 41.6128 -84.7878 167° South 148 170 4,900  Level Chicago Center
10:33PM 41.5722 -84.7764 168° South 148 170 4,900  Level Chicago Center
10:34PM 41.5308 -84.7656 169° South 149 171 4,900  Level Chicago Center
10:35PM 41.4906 -84.7531 167° South 149 171 4,900  Level Chicago Center
10:36PM 41.4492 -84.7411 168° South 150 173 5,000  Climbing Chicago Center
10:37PM 41.4081 -84.7289 167° South 151 174 5,000 -60 Level Chicago Center
10:38PM 41.3589 -84.7131 166° South 152 175 4,900 -60 Descending Chicago Center
10:39PM 41.3181 -84.7025 169° South 150 173 4,900  Level Chicago Center
10:40PM 41.2775 -84.6919 169° South 150 173 4,900  Level Chicago Center
10:41PM 41.2364 -84.6806 168° South 150 173 4,900  Level Chicago Center
10:42PM 41.1964 -84.6653 164° South 151 174 5,000  Climbing Chicago Center
10:43PM 41.1561 -84.6583 173° South 147 169 4,900 -60 Descending Chicago Center
10:44PM 41.1150 -84.6447 166° South 149 171 4,900  Level Chicago Center
10:45PM 41.0742 -84.6322 167° South 150 173 4,900  Level Chicago Center
10:46PM 41.0333 -84.6217 169° South 150 173 4,900  Level Chicago Center
10:47PM 40.9925 -84.6097 168° South 150 173 4,900  Level Chicago Center
10:48PM 40.9517 -84.5989 169° South 150 173 4,900  Level Chicago Center
10:49PM 40.9025 -84.5844 167° South 150 173 5,000  Climbing Chicago Center
10:50PM 40.8608 -84.5722 167° South 151 174 4,900  Descending Chicago Center
10:51PM 40.8403 -84.5675 170° South 150 173 5,000 60 Climbing Indianapolis Center
10:52PM 40.7931 -84.5553 169° South 148 170 5,000  Level Indianapolis Center
10:53PM 40.7517 -84.5433 168° South 149 171 5,000  Level Indianapolis Center
10:54PM 40.7106 -84.5311 167° South 150 173 5,000  Level Indianapolis Center
10:55PM 40.6681 -84.5200 169° South 151 174 5,000  Level Indianapolis Center
10:56PM 40.6269 -84.5078 167° South 151 174 5,000  Level Indianapolis Center
10:57PM 40.5864 -84.4969 169° South 150 173 5,000  Level Indianapolis Center
10:58PM 40.5456 -84.4856 168° South 149 171 5,000  Level Indianapolis Center
10:59PM 40.5044 -84.4733 167° South 150 173 5,000  Level Indianapolis Center
11:00PM 40.4817 -84.4686 171° South 148 170 5,000  Level Indianapolis Center
11:00PM 40.4639 -84.4633 167° South 148 170 5,000  Level Indianapolis Center
11:01PM 40.4231 -84.4517 168° South 149 171 5,000  Level Indianapolis Center
11:02PM 40.3819 -84.4406 168° South 149 171 5,000 -60 Level Indianapolis Center
11:03PM 40.3408 -84.4283 167° South 149 171 4,900 -60 Descending Indianapolis Center
11:04PM 40.2992 -84.4172 169° South 151 174 4,900  Level Indianapolis Center
11:05PM 40.2583 -84.4061 168° South 150 173 4,900  Level Indianapolis Center
11:06PM 40.2178 -84.3942 167° South 149 171 4,900  Level Indianapolis Center
11:07PM 40.1764 -84.3836 169° South 149 171 5,000  Climbing Indianapolis Center
11:08PM 40.1286 -84.3703 168° South 149 171 4,900 -60 Descending Indianapolis Center
11:09PM 40.0881 -84.3583 167° South 149 171 4,900  Level Indianapolis Center
11:10PM 40.0483 -84.3497 171° South 146 168 4,900  Level Indianapolis Center
11:11PM 40.0069 -84.3383 168° South 148 170 4,900  Level Indianapolis Center
11:12PM 39.9625 -84.3278 170° South 157 181 5,000  Climbing Indianapolis Center
11:13PM 39.9261 -84.3156 166° South 146 168 5,000 -300 Level Indianapolis Center
11:14PM 39.8853 -84.3047 168° South 144 166 4,500 -480 Descending Indianapolis Center
11:16PM 39.8294 -84.2897 168° South 161 185 4,000 -420 Descending Indianapolis Center
11:16PM 39.7961 -84.2808 168° South 158 182 3,700 -360 Descending Indianapolis Center
11:17PM 39.7522 -84.2675 167° South 158 182 3,400 -300 Descending Indianapolis Center
11:19PM 39.5833 -84.2167 180° South  Level FlightAware Approximate
11:26PM 39.5890 -84.2249 180° South  Level Estimated
11:27PM 39.5890 -84.2249 180° South  Level Estimated